| time (UTC) | temp F | wind direction | speed MPH | gust MPH | rain 1hr in | rain 24hr in | rain mn in | humidity % | barometer mb |
| 20260502151534 | 61 | 0 | 0.0 | 1.0 | 0.00 | 0.00 | 0.00 | 64 | 1012.9 |
| 20260502123030 | 66 | 60 | 0.0 | 1.0 | 0.00 | 0.00 | 0.00 | 48 | 1012.1 |
| 20260502121530 | 65 | 0 | 0.0 | 0.0 | 0.00 | 0.00 | 0.00 | 49 | 1012.0 |
| 20260502114530 | 67 | 0 | 0.0 | 1.0 | 0.00 | 0.07 | 0.00 | 44 | 1011.5 |
| 20260502113030 | 68 | 0 | 0.0 | 1.0 | 0.00 | 0.07 | 0.00 | 41 | 1011.2 |
| 20260502111529 | 69 | 0 | 0.0 | 0.0 | 0.00 | 0.07 | 0.00 | 41 | 1010.8 |
| 20260502110035 | 70 | 0 | 0.0 | 1.0 | 0.00 | 0.07 | 0.00 | 37 | 1010.6 |
| 20260502104529 | 71 | 61 | 0.0 | 2.0 | 0.00 | 0.07 | 0.00 | 34 | 1010.4 |
| 20260502103029 | 71 | 59 | 1.0 | 3.0 | 0.00 | 0.07 | 0.00 | 33 | 1010.2 |
| 20260502101531 | 72 | 55 | 2.0 | 3.0 | 0.00 | 0.07 | 0.00 | 32 | 1010.1 |
| 20260502091530 | 75 | 330 | 1.0 | 3.0 | 0.00 | 0.07 | 0.00 | 27 | 1009.6 |
| 20260502071533 | 78 | 8 | 9.0 | 15.0 | 0.00 | 0.07 | 0.00 | 24 | 1008.1 |
| 20260502070042 | 79 | 338 | 7.0 | 18.0 | 0.00 | 0.07 | 0.00 | 25 | 1007.6 |
| 20260502064539 | 79 | 305 | 6.0 | 16.0 | 0.00 | 0.07 | 0.00 | 24 | 1007.3 |
| 20260502063030 | 79 | 316 | 8.0 | 18.0 | 0.00 | 0.07 | 0.00 | 24 | 1007.0 |
| 20260502061528 | 79 | 323 | 9.0 | 20.0 | 0.00 | 0.07 | 0.00 | 24 | 1006.8 |
| 20260502060030 | 78 | 332 | 9.0 | 20.0 | 0.00 | 0.07 | 0.00 | 24 | 1006.7 |
| 20260502054530 | 79 | 326 | 11.0 | 21.0 | 0.00 | 0.07 | 0.00 | 24 | 1006.4 |
| 20260502053032 | 79 | 312 | 12.0 | 21.0 | 0.00 | 0.07 | 0.00 | 26 | 1006.1 |
| 20260502051532 | 78 | 345 | 11.0 | 22.0 | 0.00 | 0.07 | 0.00 | 26 | 1006.3 |
| 20260502050035 | 78 | 354 | 7.0 | 21.0 | 0.00 | 0.07 | 0.00 | 27 | 1006.4 |
| 20260502044530 | 78 | 349 | 12.0 | 21.0 | 0.00 | 0.07 | 0.00 | 25 | 1006.5 |
| 20260502043030 | 78 | 345 | 9.0 | 22.0 | 0.00 | 0.07 | 0.00 | 27 | 1006.3 |
| 20260502041531 | 77 | 326 | 10.0 | 22.0 | 0.00 | 0.07 | 0.00 | 27 | 1006.3 |
| 20260502040029 | 77 | 305 | 10.0 | 23.0 | 0.00 | 0.07 | 0.00 | 28 | 1006.4 |
| 20260502034537 | 78 | 35 | 9.0 | 19.0 | 0.00 | 0.14 | 0.00 | 27 | 1006.5 |
| 20260502033028 | 77 | 359 | 11.0 | 25.0 | 0.00 | 0.14 | 0.00 | 27 | 1006.0 |
| 20260502031528 | 76 | 340 | 13.0 | 23.0 | 0.00 | 0.14 | 0.00 | 26 | 1005.8 |
| 20260502030028 | 76 | 340 | 10.0 | 24.0 | 0.00 | 0.14 | 0.00 | 28 | 1005.6 |
| 20260502024528 | 76 | 299 | 11.0 | 23.0 | 0.00 | 0.30 | 0.00 | 27 | 1005.7 |
| 20260502023030 | 76 | 358 | 9.0 | 20.0 | 0.00 | 0.30 | 0.00 | 29 | 1005.5 |
| 20260502021530 | 76 | 308 | 8.0 | 24.0 | 0.00 | 0.30 | 0.00 | 31 | 1005.0 |
| 20260502020028 | 75 | 275 | 8.0 | 20.0 | 0.00 | 0.30 | 0.00 | 32 | 1004.6 |
| 20260502014548 | 74 | 326 | 12.0 | 20.0 | 0.00 | 0.49 | 0.00 | 32 | 1004.3 |
| 20260502013028 | 74 | 314 | 12.0 | 21.0 | 0.00 | 0.49 | 0.00 | 32 | 1004.2 |
| 20260502011533 | 75 | 318 | 14.0 | 24.0 | 0.00 | 0.49 | 0.00 | 30 | 1004.1 |
| 20260502010030 | 74 | 292 | 11.0 | 25.0 | 0.00 | 0.49 | 0.00 | 31 | 1004.1 |
| 20260502004533 | 73 | 255 | 9.0 | 21.0 | 0.00 | 0.85 | 0.00 | 33 | 1004.0 |
| 20260502003032 | 73 | 274 | 7.0 | 18.0 | 0.00 | 0.85 | 0.00 | 34 | 1003.7 |
| 20260502001532 | 71 | 253 | 4.0 | 10.0 | 0.00 | 0.85 | 0.00 | 39 | 1003.7 |
| 20260502000045 | 69 | 219 | 4.0 | 8.0 | 0.00 | 0.85 | 0.00 | 39 | 1003.9 |
| 20260501234530 | 68 | 200 | 4.0 | 10.0 | 0.00 | 1.35 | 0.00 | 41 | 1003.7 |
| 20260501233031 | 67 | 276 | 5.0 | 10.0 | 0.00 | 1.35 | 0.00 | 42 | 1003.5 |
| 20260501231531 | 67 | 233 | 4.0 | 8.0 | 0.00 | 1.35 | 0.00 | 42 | 1003.4 |
| 20260501230031 | 66 | 233 | 5.0 | 10.0 | 0.00 | 1.35 | 0.00 | 42 | 1003.2 |
| 20260501224529 | 66 | 259 | 3.0 | 8.0 | 0.00 | 1.63 | 0.00 | 43 | 1002.7 |
| 20260501223029 | 65 | 300 | 5.0 | 10.0 | 0.00 | 1.63 | 0.00 | 45 | 1002.4 |
| 20260501221531 | 65 | 290 | 5.0 | 14.0 | 0.00 | 1.63 | 0.00 | 44 | 1002.2 |
| 20260501220028 | 64 | 322 | 6.0 | 18.0 | 0.00 | 1.63 | 0.00 | 44 | 1001.8 |
| 20260501214536 | 63 | 289 | 8.0 | 14.0 | 0.00 | 1.85 | 0.00 | 47 | 1001.6 |
| 20260501213028 | 62 | 300 | 6.0 | 12.0 | 0.00 | 1.85 | 0.00 | 51 | 1001.3 |
| 20260501211528 | 60 | 351 | 3.0 | 7.0 | 0.00 | 1.85 | 0.00 | 56 | 1001.1 |
| 20260501210031 | 60 | 8 | 2.0 | 12.0 | 0.00 | 1.85 | 0.00 | 58 | 1000.7 |
| 20260501204530 | 59 | 309 | 6.0 | 13.0 | 0.00 | 1.85 | 0.00 | 58 | 1000.7 |
| 20260501203034 | 59 | 330 | 8.0 | 16.0 | 0.00 | 1.85 | 0.00 | 62 | 1000.4 |
| 20260501201528 | 59 | 4 | 7.0 | 12.0 | 0.00 | 1.85 | 0.00 | 63 | 1000.1 |
| 20260501200030 | 57 | 328 | 4.0 | 9.0 | 0.00 | 1.85 | 0.00 | 71 | 999.8 |
| 20260501194533 | 57 | 274 | 3.0 | 5.0 | 0.00 | 2.05 | 0.00 | 74 | 999.3 |
| 20260501193029 | 56 | 274 | 3.0 | 6.0 | 0.00 | 2.05 | 0.00 | 75 | 998.8 |
| 20260501191528 | 57 | 281 | 3.0 | 7.0 | 0.00 | 2.05 | 0.00 | 75 | 998.3 |
| 20260501190030 | 56 | 278 | 4.0 | 8.0 | 0.00 | 2.05 | 0.00 | 77 | 998.0 |
| 20260501184528 | 53 | 241 | 3.0 | 10.0 | 0.00 | 2.23 | 0.00 | 89 | 997.6 |
| 20260501183039 | 52 | 214 | 3.0 | 4.0 | 0.00 | 2.23 | 0.00 | 91 | 997.3 |
| 20260501181535 | 52 | 226 | 1.0 | 3.0 | 0.00 | 2.23 | 0.00 | 90 | 997.1 |
| 20260501180032 | 52 | 6 | 2.0 | 9.0 | 0.00 | 2.23 | 0.00 | 89 | 996.8 |
| 20260501174540 | 52 | 153 | 5.0 | 10.0 | 0.00 | 2.28 | 0.00 | 89 | 996.2 |
| 20260501173028 | 53 | 331 | 2.0 | 3.0 | 0.00 | 2.28 | 0.00 | 87 | 996.3 |
| 20260501171528 | 53 | 322 | 1.0 | 2.0 | 0.00 | 2.28 | 0.00 | 87 | 996.0 |
| 20260501170027 | 53 | 192 | 0.0 | 3.0 | 0.00 | 2.28 | 0.00 | 87 | 995.7 |
| 20260501164528 | 53 | 194 | 3.0 | 6.0 | 0.00 | 2.33 | 0.00 | 88 | 995.3 |
| 20260501163034 | 53 | 143 | 0.0 | 2.0 | 0.00 | 2.33 | 0.00 | 87 | 995.2 |
| 20260501161529 | 54 | 0 | 1.0 | 2.0 | 0.00 | 2.33 | 0.00 | 85 | 995.4 |
| 20260501160031 | 54 | 0 | 0.0 | 2.0 | 0.00 | 2.33 | 0.00 | 84 | 995.5 |